createdAt,value
2018-09-26T00:00:07.485Z,1031.86
2018-09-26T00:01:07.410Z,1031.87
2018-09-26T00:02:07.322Z,1031.92
2018-09-26T00:03:07.235Z,1031.86
2018-09-26T00:04:07.148Z,1031.88
2018-09-26T00:05:07.073Z,1031.89
2018-09-26T00:06:06.985Z,1031.90
2018-09-26T00:07:06.898Z,1031.88
2018-09-26T00:08:06.811Z,1031.87
2018-09-26T00:09:06.736Z,1031.87
2018-09-26T00:10:06.648Z,1031.88
2018-09-26T00:11:06.562Z,1031.90
2018-09-26T00:12:06.486Z,1031.84
2018-09-26T00:13:06.399Z,1031.76
2018-09-26T00:14:06.310Z,1031.73
2018-09-26T00:15:06.236Z,1031.68
2018-09-26T00:16:06.150Z,1031.68
2018-09-26T00:17:06.061Z,1031.66
2018-09-26T00:18:05.975Z,1031.68
2018-09-26T00:19:05.900Z,1031.64
2018-09-26T00:20:05.813Z,1031.68
2018-09-26T00:21:05.725Z,1031.69
2018-09-26T00:22:05.638Z,1031.74
2018-09-26T00:23:05.575Z,1031.71
2018-09-26T00:24:05.475Z,1031.72
2018-09-26T00:25:05.387Z,1031.71
2018-09-26T00:26:05.312Z,1031.70
2018-09-26T00:27:05.226Z,1031.66
2018-09-26T00:28:05.138Z,1031.67
2018-09-26T00:29:05.051Z,1031.66
2018-09-26T00:30:04.976Z,1031.65
2018-09-26T00:31:04.888Z,1031.74
2018-09-26T00:32:04.806Z,1031.69
2018-09-26T00:33:04.726Z,1031.72
2018-09-26T00:34:04.637Z,1031.72
2018-09-26T00:35:04.558Z,1031.71
2018-09-26T00:36:04.585Z,1031.71
2018-09-26T00:37:04.388Z,1031.72
2018-09-26T00:38:04.302Z,1031.74
2018-09-26T00:39:04.227Z,1031.70
2018-09-26T00:40:04.139Z,1031.69
2018-09-26T00:41:04.057Z,1031.65
2018-09-26T00:42:03.964Z,1031.64
2018-09-26T00:43:03.878Z,1031.68
2018-09-26T00:44:03.802Z,1031.66
2018-09-26T00:45:03.729Z,1031.62
2018-09-26T00:46:03.628Z,1031.60
2018-09-26T00:47:03.555Z,1031.56
2018-09-26T00:48:03.467Z,1031.53
2018-09-26T00:49:03.378Z,1031.53
2018-09-26T00:50:03.290Z,1031.49
2018-09-26T00:51:03.216Z,1031.51
2018-09-26T00:52:03.128Z,1031.48
2018-09-26T00:53:03.040Z,1031.45
2018-09-26T00:54:02.965Z,1031.47
2018-09-26T00:55:02.881Z,1031.45
2018-09-26T00:56:02.791Z,1031.44
2018-09-26T00:57:02.715Z,1031.42
2018-09-26T00:58:02.631Z,1031.38
2018-09-26T00:59:02.553Z,1031.34
2018-09-26T01:00:02.455Z,1031.37
2018-09-26T01:01:02.367Z,1031.37
2018-09-26T01:02:02.297Z,1031.38
2018-09-26T01:03:02.207Z,1031.41
2018-09-26T01:04:02.117Z,1031.42
2018-09-26T01:05:02.042Z,1031.42
2018-09-26T01:06:01.955Z,1031.38
2018-09-26T01:07:01.867Z,1031.36
2018-09-26T01:08:01.782Z,1031.34
2018-09-26T01:09:01.704Z,1031.31
2018-09-26T01:10:01.617Z,1031.31
2018-09-26T01:11:01.532Z,1031.30
2018-09-26T01:12:01.443Z,1031.29
2018-09-26T01:13:01.372Z,1031.25
2018-09-26T01:14:01.281Z,1031.25
2018-09-26T01:15:01.193Z,1031.24
2018-09-26T01:16:01.118Z,1031.20
2018-09-26T01:17:01.033Z,1031.20
2018-09-26T01:18:00.955Z,1031.13
2018-09-26T01:19:00.856Z,1031.10
2018-09-26T01:20:00.784Z,1031.05
2018-09-26T01:21:00.693Z,1031.02
2018-09-26T01:22:00.617Z,1031.05
2018-09-26T01:23:00.520Z,1031.02
2018-09-26T01:24:00.447Z,1031.02
2018-09-26T01:25:00.357Z,1031.02
2018-09-26T01:26:00.269Z,1030.97
2018-09-26T01:27:00.193Z,1030.94
2018-09-26T01:28:00.109Z,1030.93
2018-09-26T01:29:00.019Z,1030.92
2018-09-26T01:29:59.933Z,1030.91
2018-09-26T01:30:59.858Z,1030.92
2018-09-26T01:31:59.769Z,1030.94
2018-09-26T01:32:59.682Z,1030.94
2018-09-26T01:33:59.608Z,1030.94
2018-09-26T01:34:59.520Z,1030.93
2018-09-26T01:35:59.435Z,1030.92
2018-09-26T01:36:59.346Z,1030.90
2018-09-26T01:37:59.273Z,1030.85
2018-09-26T01:38:59.184Z,1030.84
2018-09-26T01:39:59.097Z,1030.80
2018-09-26T01:40:59.009Z,1030.76
2018-09-26T01:41:58.934Z,1030.74
2018-09-26T01:42:58.846Z,1030.70
2018-09-26T01:43:58.759Z,1030.71
2018-09-26T01:44:58.670Z,1030.75
2018-09-26T01:45:58.596Z,1030.78
2018-09-26T01:46:58.509Z,1030.79
2018-09-26T01:47:58.422Z,1030.78
2018-09-26T01:48:58.335Z,1030.76
2018-09-26T01:49:58.260Z,1030.78
2018-09-26T01:50:58.174Z,1030.80
2018-09-26T01:51:58.096Z,1030.82
2018-09-26T01:52:57.997Z,1030.83
2018-09-26T01:53:57.935Z,1030.83
2018-09-26T01:54:57.836Z,1030.82
2018-09-26T01:55:57.747Z,1030.86
2018-09-26T01:56:57.661Z,1030.82
2018-09-26T01:57:57.585Z,1030.82
2018-09-26T01:58:57.499Z,1030.79
2018-09-26T01:59:57.410Z,1030.81
2018-09-26T02:00:57.324Z,1030.78
2018-09-26T02:01:57.248Z,1030.79
2018-09-26T02:02:57.161Z,1030.79
2018-09-26T02:03:57.090Z,1030.76
2018-09-26T02:04:56.998Z,1030.80
2018-09-26T02:05:56.915Z,1030.76
2018-09-26T02:06:56.823Z,1030.80
2018-09-26T02:07:56.736Z,1030.81
2018-09-26T02:08:56.661Z,1030.81
2018-09-26T02:09:56.587Z,1030.79
2018-09-26T02:10:56.487Z,1030.81
2018-09-26T02:11:56.399Z,1030.80
2018-09-26T02:12:56.323Z,1030.75
2018-09-26T02:13:56.238Z,1030.74
2018-09-26T02:14:56.149Z,1030.79
2018-09-26T02:15:56.062Z,1030.69
2018-09-26T02:16:55.989Z,1030.69
2018-09-26T02:17:55.899Z,1030.65
2018-09-26T02:18:55.811Z,1030.64
2018-09-26T02:19:55.725Z,1030.67
2018-09-26T02:20:55.650Z,1030.66
2018-09-26T02:21:55.562Z,1030.70
2018-09-26T02:22:55.475Z,1030.72
2018-09-26T02:23:55.390Z,1030.73
2018-09-26T02:24:55.314Z,1030.71
2018-09-26T02:25:55.225Z,1030.68
2018-09-26T02:26:55.140Z,1030.63
2018-09-26T02:27:55.052Z,1030.59
2018-09-26T02:28:54.975Z,1030.64
2018-09-26T02:29:54.889Z,1030.63
2018-09-26T02:30:54.805Z,1030.67
2018-09-26T02:31:54.726Z,1030.63
2018-09-26T02:32:54.639Z,1030.59
2018-09-26T02:33:54.551Z,1030.61
2018-09-26T02:34:54.464Z,1030.59
2018-09-26T02:35:54.390Z,1030.63
2018-09-26T02:36:54.302Z,1030.66
2018-09-26T02:37:54.217Z,1030.66
2018-09-26T02:38:54.134Z,1030.66
2018-09-26T02:39:54.065Z,1030.67
2018-09-26T02:40:53.965Z,1030.68
2018-09-26T02:41:53.880Z,1030.70
2018-09-26T02:42:53.799Z,1030.73
2018-09-26T02:43:53.716Z,1030.71
2018-09-26T02:44:53.627Z,1030.78
2018-09-26T02:45:53.540Z,1030.77
2018-09-26T02:46:53.453Z,1030.81
2018-09-26T02:47:53.377Z,1030.77
2018-09-26T02:48:53.292Z,1030.81
2018-09-26T02:49:53.202Z,1030.75
2018-09-26T02:50:53.116Z,1030.77
2018-09-26T02:51:53.041Z,1030.79
2018-09-26T02:52:52.953Z,1030.81
2018-09-26T02:53:52.865Z,1030.82
2018-09-26T02:54:52.779Z,1030.76
2018-09-26T02:55:52.838Z,1030.80
2018-09-26T02:56:52.617Z,1030.73
2018-09-26T02:57:52.528Z,1030.74
2018-09-26T02:58:52.441Z,1030.75
2018-09-26T02:59:52.367Z,1030.72
2018-09-26T03:00:52.292Z,1030.73
2018-09-26T03:01:52.197Z,1030.70
2018-09-26T03:02:52.107Z,1030.74
2018-09-26T03:03:52.055Z,1030.69
2018-09-26T03:04:51.945Z,1030.67
2018-09-26T03:05:51.869Z,1030.63
2018-09-26T03:06:51.767Z,1030.62
2018-09-26T03:07:51.696Z,1030.64
2018-09-26T03:08:51.609Z,1030.63
2018-09-26T03:09:51.518Z,1030.64
2018-09-26T03:10:51.462Z,1030.68
2018-09-26T03:11:51.355Z,1030.62
2018-09-26T03:12:51.268Z,1030.62
2018-09-26T03:13:51.183Z,1030.62
2018-09-26T03:14:51.094Z,1030.60
2018-09-26T03:15:51.019Z,1030.61
2018-09-26T03:16:50.930Z,1030.66
2018-09-26T03:17:50.859Z,1030.59
2018-09-26T03:18:50.757Z,1030.58
2018-09-26T03:19:50.696Z,1030.55
2018-09-26T03:20:50.594Z,1030.57
2018-09-26T03:21:50.506Z,1030.53
2018-09-26T03:22:50.420Z,1030.50
2018-09-26T03:23:50.348Z,1030.47
2018-09-26T03:24:50.270Z,1030.51
2018-09-26T03:25:50.170Z,1030.51
2018-09-26T03:26:50.084Z,1030.49
2018-09-26T03:27:50.007Z,1030.50
2018-09-26T03:28:49.920Z,1030.52
2018-09-26T03:29:49.835Z,1030.52
2018-09-26T03:30:49.757Z,1030.52
2018-09-26T03:31:49.672Z,1030.55
2018-09-26T03:32:49.588Z,1030.57
2018-09-26T03:33:49.537Z,1030.57
2018-09-26T03:34:49.409Z,1030.60
2018-09-26T03:35:49.335Z,1030.58
2018-09-26T03:36:49.246Z,1030.60
2018-09-26T03:37:49.159Z,1030.61
2018-09-26T03:38:49.088Z,1030.57
2018-09-26T03:39:48.995Z,1030.62
2018-09-26T03:40:48.907Z,1030.58
2018-09-26T03:41:48.844Z,1030.63
2018-09-26T03:42:48.735Z,1030.61
2018-09-26T03:43:48.659Z,1030.64
2018-09-26T03:44:48.574Z,1030.57
2018-09-26T03:45:48.483Z,1030.62
2018-09-26T03:46:48.408Z,1030.58
2018-09-26T03:47:48.321Z,1030.57
2018-09-26T03:48:48.236Z,1030.55
2018-09-26T03:49:48.147Z,1030.53
2018-09-26T03:50:48.071Z,1030.49
2018-09-26T03:51:47.983Z,1030.45
2018-09-26T03:52:47.897Z,1030.41
2018-09-26T03:53:47.809Z,1030.38
2018-09-26T03:54:47.734Z,1030.31
2018-09-26T03:55:47.650Z,1030.31
2018-09-26T03:56:47.559Z,1030.31
2018-09-26T03:57:47.474Z,1030.25
2018-09-26T03:58:47.398Z,1030.19
2018-09-26T03:59:47.310Z,1030.20
2018-09-26T04:00:47.223Z,1030.16
2018-09-26T04:01:47.135Z,1030.20
2018-09-26T04:02:47.060Z,1030.22
2018-09-26T04:03:46.974Z,1030.25
2018-09-26T04:04:46.915Z,1030.22
2018-09-26T04:05:46.799Z,1030.19
2018-09-26T04:06:46.723Z,1030.14
2018-09-26T04:07:46.648Z,1030.16
2018-09-26T04:08:46.550Z,1030.20
2018-09-26T04:09:46.460Z,1030.18
2018-09-26T04:10:46.386Z,1030.19
2018-09-26T04:11:46.299Z,1030.16
2018-09-26T04:12:46.252Z,1030.13
2018-09-26T04:13:46.126Z,1030.14
2018-09-26T04:14:46.053Z,1030.18
2018-09-26T04:15:45.970Z,1030.12
2018-09-26T04:16:45.877Z,1030.13
2018-09-26T04:17:45.787Z,1030.10
2018-09-26T04:18:45.722Z,1030.09
2018-09-26T04:19:45.625Z,1030.04
2018-09-26T04:20:45.550Z,1030.06
2018-09-26T04:21:45.455Z,1030.04
2018-09-26T04:22:45.380Z,1030.05
2018-09-26T04:23:45.288Z,1030.12
2018-09-26T04:24:45.208Z,1030.08
2018-09-26T04:25:45.113Z,1030.07
2018-09-26T04:26:45.177Z,1030.04
2018-09-26T04:27:45.089Z,1030.02
2018-09-26T04:28:44.863Z,1029.97
2018-09-26T04:29:44.786Z,1029.99
2018-09-26T04:30:44.702Z,1029.94
2018-09-26T04:31:44.613Z,1029.91
2018-09-26T04:32:44.576Z,1029.84
2018-09-26T04:33:44.535Z,1029.83
2018-09-26T04:34:44.364Z,1029.82
2018-09-26T04:35:44.277Z,1029.85
2018-09-26T04:36:44.188Z,1029.90
2018-09-26T04:37:44.117Z,1029.90
2018-09-26T04:38:44.139Z,1029.93
2018-09-26T04:39:43.939Z,1029.93
2018-09-26T04:40:43.852Z,1029.92
2018-09-26T04:41:43.777Z,1029.93
2018-09-26T04:42:43.690Z,1029.88
2018-09-26T04:43:43.603Z,1029.85
2018-09-26T04:44:43.514Z,1029.82
2018-09-26T04:45:43.428Z,1029.81
2018-09-26T04:46:43.341Z,1029.77
2018-09-26T04:47:43.266Z,1029.75
2018-09-26T04:48:43.178Z,1029.76
2018-09-26T04:49:43.090Z,1029.77
2018-09-26T04:50:43.040Z,1029.69
2018-09-26T04:51:42.932Z,1029.71
2018-09-26T04:52:42.841Z,1029.68
2018-09-26T04:53:42.758Z,1029.67
2018-09-26T04:54:42.679Z,1029.61
2018-09-26T04:55:42.591Z,1029.62
2018-09-26T04:56:42.504Z,1029.60
2018-09-26T04:57:42.453Z,1029.60
2018-09-26T04:58:42.341Z,1029.62
2018-09-26T04:59:42.256Z,1029.65
2018-09-26T05:00:42.167Z,1029.65
2018-09-26T05:01:42.080Z,1029.59
2018-09-26T05:02:42.005Z,1029.61
2018-09-26T05:03:41.917Z,1029.61
2018-09-26T05:04:41.831Z,1029.57
2018-09-26T05:05:41.755Z,1029.54
2018-09-26T05:06:41.667Z,1029.52
2018-09-26T05:07:41.580Z,1029.50
2018-09-26T05:08:41.492Z,1029.49
2018-09-26T05:09:41.417Z,1029.50
2018-09-26T05:10:41.331Z,1029.51
2018-09-26T05:11:41.256Z,1029.52
2018-09-26T05:12:41.160Z,1029.46
2018-09-26T05:13:41.071Z,1029.44
2018-09-26T05:14:41.011Z,1029.40
2018-09-26T05:15:40.907Z,1029.37
2018-09-26T05:16:40.818Z,1029.34
2018-09-26T05:17:40.731Z,1029.30
2018-09-26T05:18:40.657Z,1029.32
2018-09-26T05:19:40.568Z,1029.35
2018-09-26T05:20:40.482Z,1029.32
2018-09-26T05:21:40.394Z,1029.27
2018-09-26T05:22:40.354Z,1029.27
2018-09-26T05:23:40.232Z,1029.34
2018-09-26T05:24:40.160Z,1029.30
2018-09-26T05:25:40.058Z,1029.26
2018-09-26T05:26:39.983Z,1029.26
2018-09-26T05:27:39.896Z,1029.23
2018-09-26T05:28:39.808Z,1029.28
2018-09-26T05:29:39.720Z,1029.25
2018-09-26T05:30:39.658Z,1029.17
2018-09-26T05:31:39.558Z,1029.20
2018-09-26T05:32:39.470Z,1029.14
2018-09-26T05:33:39.384Z,1029.19
2018-09-26T05:34:39.308Z,1029.15
2018-09-26T05:35:39.223Z,1029.16
2018-09-26T05:36:39.134Z,1029.18
2018-09-26T05:37:39.047Z,1029.18
2018-09-26T05:38:38.970Z,1029.18
2018-09-26T05:39:38.884Z,1029.17
2018-09-26T05:40:38.810Z,1029.19
2018-09-26T05:41:38.723Z,1029.16
2018-09-26T05:42:38.640Z,1029.15
2018-09-26T05:43:38.547Z,1029.16
2018-09-26T05:44:38.460Z,1029.15
2018-09-26T05:45:38.384Z,1029.17
2018-09-26T05:46:38.297Z,1029.23
2018-09-26T05:47:38.213Z,1029.24
2018-09-26T05:48:38.121Z,1029.24
2018-09-26T05:49:38.047Z,1029.21
2018-09-26T05:50:37.960Z,1029.26
2018-09-26T05:51:37.872Z,1029.29
2018-09-26T05:52:37.785Z,1029.23
2018-09-26T05:53:37.771Z,1029.18
2018-09-26T05:54:37.623Z,1029.22
2018-09-26T05:55:37.535Z,1029.17
2018-09-26T05:56:37.450Z,1029.19
2018-09-26T05:57:37.372Z,1029.18
2018-09-26T05:58:37.286Z,1029.23
2018-09-26T05:59:37.203Z,1029.17
2018-09-26T06:00:37.123Z,1029.19
2018-09-26T06:01:37.037Z,1029.20
2018-09-26T06:02:36.948Z,1029.20
2018-09-26T06:03:36.862Z,1029.24
2018-09-26T06:04:36.786Z,1029.24
2018-09-26T06:05:36.699Z,1029.20
2018-09-26T06:06:36.612Z,1029.21
2018-09-26T06:07:36.525Z,1029.20
2018-09-26T06:08:36.449Z,1029.21
2018-09-26T06:09:36.362Z,1029.19
2018-09-26T06:10:36.274Z,1029.26
2018-09-26T06:11:36.201Z,1029.24
2018-09-26T06:12:36.113Z,1029.25
2018-09-26T06:13:36.028Z,1029.17
2018-09-26T06:14:35.949Z,1029.17
2018-09-26T06:15:35.863Z,1029.20
2018-09-26T06:16:35.777Z,1029.21
2018-09-26T06:17:35.687Z,1029.18
2018-09-26T06:18:35.620Z,1029.21
2018-09-26T06:19:35.529Z,1029.16
2018-09-26T06:20:35.438Z,1029.12
2018-09-26T06:21:35.363Z,1029.22
2018-09-26T06:22:35.290Z,1029.20
2018-09-26T06:23:35.195Z,1029.24
2018-09-26T06:24:35.148Z,1029.23
2018-09-26T06:25:35.026Z,1029.23
2018-09-26T06:26:34.939Z,1029.19
2018-09-26T06:27:34.850Z,1029.23
2018-09-26T06:28:34.776Z,1029.20
2018-09-26T06:29:34.689Z,1029.17
2018-09-26T06:30:34.625Z,1029.16
2018-09-26T06:31:34.526Z,1029.20
2018-09-26T06:32:34.439Z,1029.20
2018-09-26T06:33:34.351Z,1029.20
2018-09-26T06:34:34.289Z,1029.22
2018-09-26T06:35:34.189Z,1029.25
2018-09-26T06:36:34.101Z,1029.24
2018-09-26T06:37:34.027Z,1029.29
2018-09-26T06:38:33.940Z,1029.19
2018-09-26T06:39:33.853Z,1029.23
2018-09-26T06:40:33.883Z,1029.18
2018-09-26T06:41:33.691Z,1029.18
2018-09-26T06:42:33.603Z,1029.15
2018-09-26T06:43:33.527Z,1029.11
2018-09-26T06:44:33.443Z,1029.18
2018-09-26T06:45:33.353Z,1029.13
2018-09-26T06:46:33.278Z,1029.22
2018-09-26T06:47:33.253Z,1029.14
2018-09-26T06:48:33.116Z,1029.18
2018-09-26T06:49:33.028Z,1029.17
2018-09-26T06:50:32.941Z,1029.12
2018-09-26T06:51:32.853Z,1029.19
2018-09-26T06:52:32.779Z,1029.23
2018-09-26T06:53:32.692Z,1029.26
2018-09-26T06:54:32.606Z,1029.23
2018-09-26T06:55:32.529Z,1029.27
2018-09-26T06:56:32.445Z,1029.25
2018-09-26T06:57:32.370Z,1029.24
2018-09-26T06:58:32.279Z,1029.28
2018-09-26T06:59:32.197Z,1029.26
2018-09-26T07:00:32.104Z,1029.20
2018-09-26T07:01:32.030Z,1029.20
2018-09-26T07:02:31.943Z,1029.24
2018-09-26T07:03:31.856Z,1029.22
2018-09-26T07:04:31.784Z,1029.17
2018-09-26T07:05:31.695Z,1029.18
2018-09-26T07:06:31.606Z,1029.22
2018-09-26T07:07:31.531Z,1029.26
2018-09-26T07:08:31.444Z,1029.25
2018-09-26T07:09:31.356Z,1029.22
2018-09-26T07:10:31.295Z,1029.20
2018-09-26T07:11:31.194Z,1029.25
2018-09-26T07:12:31.119Z,1029.23
2018-09-26T07:13:31.031Z,1029.27
2018-09-26T07:14:30.956Z,1029.26
2018-09-26T07:15:30.869Z,1029.28
2018-09-26T07:16:30.794Z,1029.28
2018-09-26T07:17:30.694Z,1029.30
2018-09-26T07:18:30.621Z,1029.30
2018-09-26T07:19:30.532Z,1029.27
2018-09-26T07:20:30.459Z,1029.28
2018-09-26T07:21:30.370Z,1029.31
2018-09-26T07:22:30.297Z,1029.31
2018-09-26T07:23:30.207Z,1029.28
2018-09-26T07:24:30.121Z,1029.30
2018-09-26T07:25:30.039Z,1029.30
2018-09-26T07:26:29.957Z,1029.26
2018-09-26T07:27:29.870Z,1029.22
2018-09-26T07:28:29.795Z,1029.24
2018-09-26T07:29:29.707Z,1029.21
2018-09-26T07:30:29.621Z,1029.19
2018-09-26T07:31:29.592Z,1029.14
2018-09-26T07:32:29.460Z,1029.13
2018-09-26T07:33:29.372Z,1029.15
2018-09-26T07:34:29.297Z,1029.14
2018-09-26T07:35:29.211Z,1029.19
2018-09-26T07:36:29.133Z,1029.18
2018-09-26T07:37:29.049Z,1029.19
2018-09-26T07:38:28.968Z,1029.22
2018-09-26T07:39:28.883Z,1029.16
2018-09-26T07:40:28.798Z,1029.16
2018-09-26T07:41:28.723Z,1029.16
2018-09-26T07:42:28.634Z,1029.12
2018-09-26T07:43:28.559Z,1029.10
2018-09-26T07:44:28.473Z,1029.14
2018-09-26T07:45:28.464Z,1029.16
2018-09-26T07:46:28.309Z,1029.17
2018-09-26T07:47:28.223Z,1029.12
2018-09-26T07:48:28.151Z,1029.11
2018-09-26T07:49:28.060Z,1029.11
2018-09-26T07:50:27.985Z,1029.14
2018-09-26T07:51:27.899Z,1029.09
2018-09-26T07:52:27.811Z,1029.13
2018-09-26T07:53:27.736Z,1029.13
2018-09-26T07:54:27.649Z,1029.17
2018-09-26T07:55:27.575Z,1029.19
2018-09-26T07:56:27.486Z,1029.25
2018-09-26T07:57:27.411Z,1029.25
2018-09-26T07:58:27.329Z,1029.28
2018-09-26T07:59:27.253Z,1029.24
2018-09-26T08:00:27.162Z,1029.29
2018-09-26T08:01:27.087Z,1029.28
2018-09-26T08:02:27.002Z,1029.34
2018-09-26T08:03:26.927Z,1029.35
2018-09-26T08:04:26.837Z,1029.36
2018-09-26T08:05:26.775Z,1029.29
2018-09-26T08:06:26.676Z,1029.31
2018-09-26T08:07:26.604Z,1029.34
2018-09-26T08:08:26.517Z,1029.31
2018-09-26T08:09:26.437Z,1029.23
2018-09-26T08:10:26.362Z,1029.19
2018-09-26T08:11:26.370Z,1029.25
2018-09-26T08:12:26.189Z,1029.24
2018-09-26T08:13:26.113Z,1029.24
2018-09-26T08:14:26.038Z,1029.26
2018-09-26T08:15:25.953Z,1029.23
2018-09-26T08:16:25.876Z,1029.24
2018-09-26T08:17:25.788Z,1029.28
2018-09-26T08:18:25.727Z,1029.22
2018-09-26T08:19:25.629Z,1029.24
2018-09-26T08:20:25.552Z,1029.19
2018-09-26T08:21:25.477Z,1029.15
2018-09-26T08:22:25.389Z,1029.18
2018-09-26T08:23:25.308Z,1029.11
2018-09-26T08:24:25.237Z,1029.01
2018-09-26T08:25:25.141Z,1029.02
2018-09-26T08:26:25.078Z,1029.00
2018-09-26T08:27:24.978Z,1028.99
2018-09-26T08:28:24.913Z,1029.01
2018-09-26T08:29:24.816Z,1029.08
2018-09-26T08:30:24.739Z,1029.04
2018-09-26T08:31:24.680Z,1028.99
2018-09-26T08:32:24.579Z,1028.96
2018-09-26T08:33:24.510Z,1028.97
2018-09-26T08:34:24.414Z,1028.95
2018-09-26T08:35:24.340Z,1028.99
2018-09-26T08:36:24.266Z,1029.00
2018-09-26T08:37:24.178Z,1029.04
2018-09-26T08:38:24.104Z,1028.99
2018-09-26T08:39:24.015Z,1028.96
2018-09-26T08:40:23.940Z,1028.96
2018-09-26T08:41:23.867Z,1028.96
2018-09-26T08:42:23.778Z,1028.90
2018-09-26T08:43:23.706Z,1028.92
2018-09-26T08:44:23.617Z,1028.88
2018-09-26T08:45:23.542Z,1028.86
2018-09-26T08:46:23.466Z,1028.79
2018-09-26T08:47:23.381Z,1028.70
2018-09-26T08:48:23.305Z,1028.74
2018-09-26T08:49:23.230Z,1028.66
2018-09-26T08:50:23.142Z,1028.65
2018-09-26T08:51:23.066Z,1028.64
2018-09-26T08:52:23.005Z,1028.66
2018-09-26T08:53:22.905Z,1028.59
2018-09-26T08:54:22.832Z,1028.55
2018-09-26T08:55:22.755Z,1028.52
2018-09-26T08:56:22.667Z,1028.56
2018-09-26T08:57:22.594Z,1028.57
2018-09-26T08:58:22.517Z,1028.54
2018-09-26T08:59:22.430Z,1028.52
2018-09-26T09:00:22.356Z,1028.54
2018-09-26T09:01:22.281Z,1028.46
2018-09-26T09:02:22.193Z,1028.37
2018-09-26T09:03:22.118Z,1028.35
2018-09-26T09:04:22.056Z,1028.34
2018-09-26T09:05:21.957Z,1028.34
2018-09-26T09:06:21.974Z,1028.36
2018-09-26T09:07:21.806Z,1028.29
2018-09-26T09:08:21.718Z,1028.28
2018-09-26T09:09:21.644Z,1028.35
2018-09-26T09:10:21.557Z,1028.38
2018-09-26T09:11:21.482Z,1028.33
2018-09-26T09:12:21.397Z,1028.31
2018-09-26T09:13:21.318Z,1028.27
2018-09-26T09:14:21.314Z,1028.34
2018-09-26T09:15:21.157Z,1028.32
2018-09-26T09:16:21.082Z,1028.33
2018-09-26T09:17:20.996Z,1028.35
2018-09-26T09:18:20.919Z,1028.31
2018-09-26T09:19:20.848Z,1028.36
2018-09-26T09:20:20.794Z,1028.36
2018-09-26T09:21:20.683Z,1028.35
2018-09-26T09:22:20.595Z,1028.40
2018-09-26T09:23:20.523Z,1028.42
2018-09-26T09:24:20.434Z,1028.40
2018-09-26T09:25:20.358Z,1028.36
2018-09-26T09:26:20.299Z,1028.34
2018-09-26T09:27:20.233Z,1028.35
2018-09-26T09:28:20.109Z,1028.30
2018-09-26T09:29:20.034Z,1028.31
2018-09-26T09:30:19.948Z,1028.26
2018-09-26T09:31:19.884Z,1028.26
2018-09-26T09:32:19.808Z,1028.23
2018-09-26T09:33:19.709Z,1028.26
2018-09-26T09:34:19.636Z,1028.18
2018-09-26T09:35:19.546Z,1028.11
2018-09-26T09:36:19.471Z,1028.08
2018-09-26T09:37:19.385Z,1028.11
2018-09-26T09:38:19.383Z,1028.10
2018-09-26T09:39:19.223Z,1028.13
2018-09-26T09:40:19.148Z,1028.10
2018-09-26T09:41:19.071Z,1028.05
2018-09-26T09:42:18.988Z,1028.06
2018-09-26T09:43:18.910Z,1028.04
2018-09-26T09:44:18.892Z,1027.97
2018-09-26T09:45:18.748Z,1027.99
2018-09-26T09:46:18.663Z,1027.95
2018-09-26T09:47:18.587Z,1027.98
2018-09-26T09:48:18.499Z,1027.98
2018-09-26T09:49:18.423Z,1028.04
2018-09-26T09:50:18.407Z,1027.98
2018-09-26T09:51:18.262Z,1028.12
2018-09-26T09:52:18.187Z,1028.12
2018-09-26T09:53:18.099Z,1028.11
2018-09-26T09:54:18.025Z,1028.15
2018-09-26T09:55:17.937Z,1028.19
2018-09-26T09:56:17.901Z,1028.19
2018-09-26T09:57:17.788Z,1028.20
2018-09-26T09:58:17.714Z,1028.16
2018-09-26T09:59:17.624Z,1028.21
2018-09-26T10:00:17.538Z,1028.17
2018-09-26T10:01:17.462Z,1028.08
2018-09-26T10:02:17.416Z,1028.12
2018-09-26T10:03:17.304Z,1028.03
2018-09-26T10:04:17.224Z,1027.97
2018-09-26T10:05:17.138Z,1027.98
2018-09-26T10:06:17.063Z,1027.97
2018-09-26T10:07:16.978Z,1027.97
2018-09-26T10:08:16.961Z,1027.93
2018-09-26T10:09:16.814Z,1027.98
2018-09-26T10:10:16.740Z,1027.96
2018-09-26T10:11:16.663Z,1027.94
2018-09-26T10:12:16.576Z,1027.92
2018-09-26T10:13:16.501Z,1027.92
2018-09-26T10:14:16.492Z,1027.85
2018-09-26T10:15:16.342Z,1027.92
2018-09-26T10:16:16.257Z,1027.93
2018-09-26T10:17:16.178Z,1027.97
2018-09-26T10:18:16.102Z,1027.97
2018-09-26T10:19:16.015Z,1027.98
2018-09-26T10:20:16.009Z,1028.10
2018-09-26T10:21:15.865Z,1027.97
2018-09-26T10:22:15.778Z,1027.88
2018-09-26T10:23:15.702Z,1027.92
2018-09-26T10:24:15.616Z,1027.93
2018-09-26T10:25:15.587Z,1027.96
2018-09-26T10:26:15.481Z,1027.89
2018-09-26T10:27:15.377Z,1027.81
2018-09-26T10:28:15.316Z,1027.78
2018-09-26T10:29:15.242Z,1027.74
2018-09-26T10:30:15.141Z,1027.79
2018-09-26T10:31:15.077Z,1027.75
2018-09-26T10:32:15.012Z,1027.72
2018-09-26T10:33:14.903Z,1027.71
2018-09-26T10:34:14.828Z,1027.71
2018-09-26T10:35:14.753Z,1027.68
2018-09-26T10:36:14.669Z,1027.63
2018-09-26T10:37:14.592Z,1027.63
2018-09-26T10:38:14.577Z,1027.61
2018-09-26T10:39:14.430Z,1027.59
2018-09-26T10:40:14.354Z,1027.60
2018-09-26T10:41:14.280Z,1027.60
2018-09-26T10:42:14.205Z,1027.59
2018-09-26T10:43:14.117Z,1027.67
2018-09-26T10:44:14.075Z,1027.70
2018-09-26T10:45:13.969Z,1027.73
2018-09-26T10:46:13.881Z,1027.63
2018-09-26T10:47:13.806Z,1027.64
2018-09-26T10:48:13.730Z,1027.55
2018-09-26T10:49:13.658Z,1027.64
2018-09-26T10:50:13.588Z,1027.56
2018-09-26T10:51:13.494Z,1027.68
2018-09-26T10:52:13.419Z,1027.63
2018-09-26T10:53:13.344Z,1027.72
2018-09-26T10:54:13.256Z,1027.64
2018-09-26T10:55:13.181Z,1027.58
2018-09-26T10:56:13.203Z,1027.58
2018-09-26T10:57:13.033Z,1027.60
2018-09-26T10:58:12.945Z,1027.58
2018-09-26T10:59:12.869Z,1027.52
2018-09-26T11:00:12.795Z,1027.51
2018-09-26T11:01:12.720Z,1027.48
2018-09-26T11:02:12.682Z,1027.47
2018-09-26T11:03:12.557Z,1027.52
2018-09-26T11:04:12.507Z,1027.43
2018-09-26T11:05:12.408Z,1027.37
2018-09-26T11:06:12.332Z,1027.32
2018-09-26T11:07:12.245Z,1027.28
2018-09-26T11:08:12.248Z,1027.10
2018-09-26T11:09:12.095Z,1027.17
2018-09-26T11:10:12.072Z,1027.16
2018-09-26T11:11:11.933Z,1027.15
2018-09-26T11:12:11.858Z,1027.14
2018-09-26T11:13:11.783Z,1027.18
2018-09-26T11:14:11.730Z,1027.19
2018-09-26T11:15:11.643Z,1027.26
2018-09-26T11:16:11.553Z,1027.17
2018-09-26T11:17:11.483Z,1027.17
2018-09-26T11:18:11.400Z,1027.07
2018-09-26T11:19:11.322Z,1027.11
2018-09-26T11:20:11.292Z,1027.00
2018-09-26T11:21:11.205Z,1026.97
2018-09-26T11:22:11.104Z,1026.97
2018-09-26T11:23:11.021Z,1026.98
2018-09-26T11:24:10.934Z,1026.90
2018-09-26T11:25:10.863Z,1026.93
2018-09-26T11:26:10.825Z,1026.85
2018-09-26T11:27:10.722Z,1026.88
2018-09-26T11:28:10.653Z,1026.83
2018-09-26T11:29:10.551Z,1026.83
2018-09-26T11:30:10.472Z,1026.86
2018-09-26T11:31:10.398Z,1026.76
2018-09-26T11:32:10.329Z,1026.78
2018-09-26T11:33:10.256Z,1026.78
2018-09-26T11:34:10.276Z,1026.77
2018-09-26T11:35:10.099Z,1026.65
2018-09-26T11:36:10.035Z,1026.67
2018-09-26T11:37:09.949Z,1026.69
2018-09-26T11:38:09.896Z,1026.66
2018-09-26T11:39:09.800Z,1026.67
2018-09-26T11:40:09.749Z,1026.72
2018-09-26T11:41:09.650Z,1026.67
2018-09-26T11:42:09.575Z,1026.65
2018-09-26T11:43:09.500Z,1026.61
2018-09-26T11:44:09.494Z,1026.63
2018-09-26T11:45:09.350Z,1026.61
2018-09-26T11:46:09.345Z,1026.61
2018-09-26T11:47:09.190Z,1026.55
2018-09-26T11:48:09.113Z,1026.52
2018-09-26T11:49:09.038Z,1026.49
2018-09-26T11:50:08.997Z,1026.50
2018-09-26T11:51:08.888Z,1026.46
2018-09-26T11:52:08.854Z,1026.45
2018-09-26T11:53:08.751Z,1026.42
2018-09-26T11:54:08.676Z,1026.44
2018-09-26T11:55:08.600Z,1026.45
2018-09-26T11:56:08.532Z,1026.44
2018-09-26T11:57:08.451Z,1026.40
2018-09-26T11:58:08.435Z,1026.42
2018-09-26T11:59:08.303Z,1026.33
2018-09-26T12:00:08.226Z,1026.39
2018-09-26T12:01:08.152Z,1026.41
2018-09-26T12:02:08.090Z,1026.43
2018-09-26T12:03:08.002Z,1026.33
2018-09-26T12:04:07.930Z,1026.29